Saint Marys, Indiana
Current Conditions -  °F | °C
As of 7:54 AM on Monday 20 Oct 2014 (Local Time) from KSBN Reporting Station
Clear Clear  
Wind Chill: 45°   Ceiling: Unl
Heat Index: 49°   Visibility: 10mi
Dew Point: 44°   Wind: 10mph
Humidity: 83%   Direction: 210°SSW
Pressure: 29.84"   Gusts: NA
Location:  41.7197°N, 86.2504°W
Report Text: KSBN 201154Z 21009KT 10SM CLR 09/07 A2984 RMK AO2 SLP106 60001 70001 T00940067 10100 20094 56012
Loading
Personal Weather Stations






























Interactive Weather Map New forecast layout! Learn more

10-Day Weather Forecast

Advertisements
Track Severe Weather on mobile